Time;durP1;ratioP1;P1;durP2;ratioP2;P2;SDS_P1;SDS_P2;PMS_P1;PMS_P2;Temp;Humidity;BMP_temperature;BMP_pressure;BME280_temperature;BME280_humidity;BME280_pressure;Samples;Min_cycle;Max_cycle;Signal;HPM_P1;HPM_P2
2022/08/11 00:00:44;;;;;;;;;;;;;;;16.10;63.52;100856.17;1425107;89;20288;-81
2022/08/11 00:03:12;;;;;;;;;;;;;;;16.06;63.41;100851.70;1418627;91;20325;-81
2022/08/11 00:05:55;;;;;;;;;;;;;;;16.04;63.57;100847.53;1429691;91;20271;-81
2022/08/11 00:08:23;;;;;;;;;;;;;;;16.00;63.44;100847.05;1429038;91;20293;-81
2022/08/11 00:14:00;;;;;;;;;;;;;;;15.93;64.20;100848.73;1422512;90;20274;-81
2022/08/11 00:16:27;;;;;;;;;;;;;;;15.90;63.74;100841.06;1441941;90;20392;-81
2022/08/11 00:18:55;;;;;;;;;;;;;;;15.87;64.36;100841.41;1439425;90;20406;-80
2022/08/11 00:21:23;;;;;;;;;;;;;;;15.83;64.77;100838.77;1444754;88;20294;-81
2022/08/11 00:23:58;;;;;;;;;;;;;;;15.76;65.05;100834.60;1411180;92;20355;-81
2022/08/11 00:26:25;;;;;;;;;;;;;;;15.69;64.69;100833.13;1419267;91;20963;-81
2022/08/11 00:28:51;;;;;;;;;;;;;;;15.60;65.40;100834.13;1421085;91;20317;-81
2022/08/11 00:31:30;;;;;;;;;;;;;;;15.54;65.47;100830.30;1418991;91;20909;-81
2022/08/11 00:33:58;;;;;;;;;;;;;;;15.46;66.34;100844.98;1435315;91;20591;-81
2022/08/11 00:36:30;;;;;;;;;;;;;;;15.35;66.99;100845.33;1440492;91;20435;-81
2022/08/11 00:39:00;;;;;;;;;;;;;;;15.29;66.75;100846.01;1436566;91;20264;-81
2022/08/11 00:41:45;;;;;;;;;;;;;;;15.26;67.01;100844.52;1431881;91;20414;-81
2022/08/11 00:44:30;;;;;;;;;;;;;;;15.27;66.65;100843.50;1425734;89;20311;-81
2022/08/11 00:47:09;;;;;;;;;;;;;;;15.23;67.63;100843.52;1424383;91;20310;-81
2022/08/11 00:50:14;;;;;;;;;;;;;;;15.16;67.73;100841.17;1430057;91;20894;-81
2022/08/11 00:52:56;;;;;;;;;;;;;;;15.08;68.55;100840.69;1430678;91;20336;-81
2022/08/11 00:55:48;;;;;;;;;;;;;;;15.02;69.10;100840.53;1435677;91;20284;-81
2022/08/11 00:58:51;;;;;;;;;;;;;;;14.93;69.41;100844.17;1423557;92;20417;-81
2022/08/11 01:01:22;;;;;;;;;;;;;;;14.80;69.94;100838.84;1428116;91;20415;-81
2022/08/11 01:04:26;;;;;;;;;;;;;;;14.78;69.36;100836.83;1406705;92;20408;-81
2022/08/11 01:07:30;;;;;;;;;;;;;;;14.81;69.83;100833.84;1429585;91;20316;-81
2022/08/11 01:10:15;;;;;;;;;;;;;;;14.82;70.36;100828.86;1398440;93;20280;-81
2022/08/11 01:13:14;;;;;;;;;;;;;;;14.85;69.97;100831.70;1448818;89;20419;-81
2022/08/11 01:16:11;;;;;;;;;;;;;;;14.85;70.98;100833.86;1444387;90;20300;-81
2022/08/11 01:18:50;;;;;;;;;;;;;;;14.87;70.24;100834.53;1440840;90;20397;-81
2022/08/11 01:21:36;;;;;;;;;;;;;;;14.89;70.31;100835.68;1433902;89;20359;-80
2022/08/11 01:24:40;;;;;;;;;;;;;;;14.89;71.64;100833.84;1469420;88;20295;-80
2022/08/11 01:27:22;;;;;;;;;;;;;;;14.94;70.88;100825.87;1437434;88;20416;-80
2022/08/11 01:30:11;;;;;;;;;;;;;;;14.96;71.88;100827.84;1450953;89;20397;-81
2022/08/11 01:33:09;;;;;;;;;;;;;;;15.00;70.77;100831.86;1456066;89;20324;-81
2022/08/11 01:35:55;;;;;;;;;;;;;;;15.00;70.95;100822.53;1450500;89;20414;-81
2022/08/11 01:38:51;;;;;;;;;;;;;;;15.00;71.62;100826.02;1456143;89;20325;-81
2022/08/11 01:44:42;;;;;;;;;;;;;;;15.04;70.73;100822.02;1456513;89;20411;-81
2022/08/11 01:47:49;;;;;;;;;;;;;;;15.06;71.21;100829.86;1454825;89;20338;-81
2022/08/11 01:50:48;;;;;;;;;;;;;;;15.06;70.74;100816.53;1452789;90;20367;-81
2022/08/11 01:53:45;;;;;;;;;;;;;;;15.06;71.17;100822.69;1448335;90;20393;-81
2022/08/11 01:56:30;;;;;;;;;;;;;;;15.06;70.45;100817.86;1448153;89;20308;-81
2022/08/11 01:59:06;;;;;;;;;;;;;;;15.01;70.55;100813.53;1446078;88;20812;-80
2022/08/11 02:01:57;;;;;;;;;;;;;;;14.99;71.47;100818.19;1468979;88;20412;-81
2022/08/11 02:04:37;;;;;;;;;;;;;;;14.98;71.42;100813.36;1470785;88;20833;-80
2022/08/11 02:07:21;;;;;;;;;;;;;;;14.97;71.98;100813.03;1469664;88;20891;-81
2022/08/11 02:13:02;;;;;;;;;;;;;;;14.99;72.36;100805.72;1474270;88;20260;-81
2022/08/11 02:15:40;;;;;;;;;;;;;;;15.02;72.49;100807.22;1474435;88;20291;-81
2022/08/11 02:18:22;;;;;;;;;;;;;;;15.04;72.08;100814.02;1477612;88;20342;-80
2022/08/11 02:23:46;;;;;;;;;;;;;;;15.06;72.35;100815.20;1446827;90;20385;-80
2022/08/11 02:26:24;;;;;;;;;;;;;;;15.07;72.43;100816.86;1447179;90;20345;-81
2022/08/11 02:29:19;;;;;;;;;;;;;;;15.01;72.72;100807.69;1448735;90;20226;-81
2022/08/11 02:35:04;;;;;;;;;;;;;;;15.02;73.02;100805.38;1457969;90;20404;-81
2022/08/11 02:37:42;;;;;;;;;;;;;;;15.07;72.20;100806.19;1453057;90;20308;-81
2022/08/11 02:40:11;;;;;;;;;;;;;;;15.09;72.61;100813.02;1448855;90;20569;-81
2022/08/11 02:42:47;;;;;;;;;;;;;;;15.13;71.48;100817.52;1425999;90;20814;-80
2022/08/11 02:45:32;;;;;;;;;;;;;;;15.12;71.75;100813.19;1446280;90;20285;-81
2022/08/11 02:51:15;;;;;;;;;;;;;;;15.10;72.24;100817.84;1455866;90;20278;-81
2022/08/11 02:54:14;;;;;;;;;;;;;;;15.09;72.35;100816.19;1447690;90;20264;-81
2022/08/11 02:57:03;;;;;;;;;;;;;;;15.06;72.61;100811.20;1447146;90;20427;-80
2022/08/11 02:59:50;;;;;;;;;;;;;;;15.06;72.45;100816.03;1425286;90;20844;-81
2022/08/11 03:02:33;;;;;;;;;;;;;;;15.03;73.22;100814.20;1444665;90;20404;-80
2022/08/11 03:05:13;;;;;;;;;;;;;;;15.03;72.54;100812.87;1441533;90;20330;-80
2022/08/11 03:07:46;;;;;;;;;;;;;;;15.02;72.91;100812.55;1441400;90;20359;-81
2022/08/11 03:10:33;;;;;;;;;;;;;;;14.99;72.46;100812.85;1435574;90;20315;-80
2022/08/11 03:19:41;;;;;;;;;;;;;;;14.93;73.54;100809.02;1385033;94;20474;-81
2022/08/11 03:22:10;;;;;;;;;;;;;;;14.92;72.92;100803.37;1437499;91;20364;-80
2022/08/11 03:24:46;;;;;;;;;;;;;;;14.95;73.34;100812.87;1449950;89;20396;-80
2022/08/11 03:27:42;;;;;;;;;;;;;;;14.93;73.01;100812.19;1438262;89;20503;-81
2022/08/11 03:30:12;;;;;;;;;;;;;;;14.87;73.34;100810.55;1440163;91;20411;-80
2022/08/11 03:35:45;;;;;;;;;;;;;;;14.79;73.54;100805.72;1452685;89;20345;-81
2022/08/11 03:38:14;;;;;;;;;;;;;;;14.75;74.36;100802.53;1403600;91;20382;-81
2022/08/11 03:44:05;;;;;;;;;;;;;;;14.70;74.76;100812.02;1440921;89;21663;-81
2022/08/11 03:46:43;;;;;;;;;;;;;;;14.69;75.01;100809.85;1395584;92;20422;-80
2022/08/11 03:49:30;;;;;;;;;;;;;;;14.71;74.95;100805.70;1414671;91;20294;-80
2022/08/11 03:52:13;;;;;;;;;;;;;;;14.73;74.21;100804.55;1428859;91;20765;-80
2022/08/11 03:55:15;;;;;;;;;;;;;;;14.76;74.82;100798.89;1434229;91;20251;-80
2022/08/11 03:57:51;;;;;;;;;;;;;;;14.82;74.74;100806.72;1441475;91;20292;-81
2022/08/11 04:00:38;;;;;;;;;;;;;;;14.85;74.74;100798.39;1411998;92;20423;-81
2022/08/11 04:03:21;;;;;;;;;;;;;;;14.86;74.73;100804.86;1418501;93;20282;-80
2022/08/11 04:06:24;;;;;;;;;;;;;;;14.87;74.62;100803.89;1418200;92;20336;-80
2022/08/11 04:09:28;;;;;;;;;;;;;;;14.89;74.58;100808.53;1411469;92;20290;-80
2022/08/11 04:12:18;;;;;;;;;;;;;;;14.94;74.67;100809.87;1424746;91;20300;-80
2022/08/11 04:18:06;;;;;;;;;;;;;;;15.07;74.07;100804.86;1426503;91;20507;-81
2022/08/11 04:20:41;;;;;;;;;;;;;;;15.16;73.73;100801.18;1428742;91;20259;-81
2022/08/11 04:23:29;;;;;;;;;;;;;;;15.23;73.57;100803.52;1428338;91;20332;-81
2022/08/11 04:26:13;;;;;;;;;;;;;;;15.31;73.07;100800.84;1428234;91;20399;-80
2022/08/11 04:28:46;;;;;;;;;;;;;;;15.34;73.18;100808.50;1423854;91;20846;-81
2022/08/11 04:31:24;;;;;;;;;;;;;;;15.42;73.23;100802.81;1438539;91;20305;-81
2022/08/11 04:34:00;;;;;;;;;;;;;;;15.47;73.17;100810.63;1435361;91;20256;-81
2022/08/11 04:39:51;;;;;;;;;;;;;;;15.60;72.36;100814.13;1434042;91;20989;-81
2022/08/11 04:46:10;;;;;;;;;;;;;;;15.80;71.61;100803.92;1415012;91;20365;-81
2022/08/11 05:01:42;;;;;;;;;;;;;;;16.26;69.87;100800.55;1413826;92;20320;-81
2022/08/11 05:05:34;;;;;;;;;;;;;;;16.38;69.48;100807.14;1399247;92;20930;-80
2022/08/11 05:07:19;;;;;;;;;;;;;;;16.49;69.29;100808.08;1389876;94;20335;-81
2022/08/11 05:09:57;;;;;;;;;;;;;;;16.61;69.46;100811.99;1402945;92;20312;-81
2022/08/11 05:12:48;;;;;;;;;;;;;;;16.72;68.76;100808.59;1409009;92;21561;-81
2022/08/11 05:35:28;;;;;;;;;;;;;;;17.54;65.41;100804.17;1412613;92;20327;-81
2022/08/11 05:57:25;;;;;;;;;;;;;;;18.43;60.73;100801.39;1420830;92;20289;-81
2022/08/11 05:59:55;;;;;;;;;;;;;;;18.57;61.10;100813.09;1415098;92;20335;-81
2022/08/11 06:02:21;;;;;;;;;;;;;;;18.72;60.97;100809.00;1387639;92;20261;-81
2022/08/11 06:04:50;;;;;;;;;;;;;;;18.83;60.09;100807.19;1395268;92;20260;-81
2022/08/11 06:07:16;;;;;;;;;;;;;;;18.89;58.91;100805.06;1416228;92;20290;-81
2022/08/11 06:09:48;;;;;;;;;;;;;;;18.98;58.73;100802.25;1416866;92;20312;-81
2022/08/11 06:12:23;;;;;;;;;;;;;;;19.03;58.48;100803.33;1402876;92;20401;-81
2022/08/11 06:14:52;;;;;;;;;;;;;;;19.18;58.32;100804.58;1396620;92;20313;-81
2022/08/11 06:17:26;;;;;;;;;;;;;;;19.23;57.51;100802.15;1419697;92;20297;-81
2022/08/11 06:20:11;;;;;;;;;;;;;;;19.31;57.12;100804.69;1410266;92;20297;-81
2022/08/11 06:22:37;;;;;;;;;;;;;;;19.38;56.88;100798.02;1400954;92;20441;-81
2022/08/11 06:25:05;;;;;;;;;;;;;;;19.46;56.82;100794.36;1398865;92;20297;-81
2022/08/11 06:27:33;;;;;;;;;;;;;;;19.56;56.18;100794.81;1389722;92;20832;-81
2022/08/11 06:30:00;;;;;;;;;;;;;;;19.56;56.16;100793.48;1398266;92;20304;-81
2022/08/11 06:32:34;;;;;;;;;;;;;;;19.63;55.94;100794.88;1387395;92;20506;-81
2022/08/11 06:35:16;;;;;;;;;;;;;;;19.73;55.95;100789.47;1403626;92;20298;-81
2022/08/11 06:37:48;;;;;;;;;;;;;;;19.88;55.47;100795.22;1396796;92;20314;-81
2022/08/11 06:40:28;;;;;;;;;;;;;;;19.97;54.56;100790.02;1393232;92;20584;-81
2022/08/11 06:43:07;;;;;;;;;;;;;;;20.03;54.82;100789.21;1397614;92;20321;-81
2022/08/11 06:45:40;;;;;;;;;;;;;;;20.15;54.80;100788.94;1401772;92;20775;-81
2022/08/11 06:48:09;;;;;;;;;;;;;;;20.28;53.91;100784.10;1402657;92;20325;-81
2022/08/11 06:53:21;;;;;;;;;;;;;;;20.45;53.15;100787.25;1388718;92;20268;-81
2022/08/11 07:01:47;;;;;;;;;;;;;;;20.72;52.10;100787.64;1417213;92;20735;-81
2022/08/11 07:04:16;;;;;;;;;;;;;;;20.85;51.97;100785.47;1419042;92;20823;-81
2022/08/11 07:15:41;;;;;;;;;;;;;;;21.27;51.34;100778.53;1387848;92;20401;-81
2022/08/11 07:29:20;;;;;;;;;;;;;;;21.69;48.95;100785.27;1392237;91;20269;-81
2022/08/11 07:31:49;;;;;;;;;;;;;;;21.88;49.65;100788.95;1410770;92;20335;-81
2022/08/11 07:34:26;;;;;;;;;;;;;;;21.90;48.79;100788.22;1411306;92;20388;-81
2022/08/11 07:36:58;;;;;;;;;;;;;;;22.07;49.08;100790.73;1395322;94;20348;-81
2022/08/11 07:39:30;;;;;;;;;;;;;;;22.21;48.82;100785.30;1382531;94;20432;-81
2022/08/11 07:41:58;;;;;;;;;;;;;;;22.25;47.80;100789.23;1396757;93;20268;-81
2022/08/11 07:44:27;;;;;;;;;;;;;;;22.33;48.40;100780.89;1386398;94;20391;-81
2022/08/11 07:52:32;;;;;;;;;;;;;;;22.71;47.81;100780.84;1419098;92;20914;-82
2022/08/11 07:55:14;;;;;;;;;;;;;;;22.82;45.94;100777.95;1401460;92;20305;-82
2022/08/11 08:19:44;;;;;;;;;;;;;;;23.78;43.18;100750.96;1431694;91;20891;-82
2022/08/11 08:22:12;;;;;;;;;;;;;;;23.85;43.37;100755.77;1441794;91;20313;-81
2022/08/11 08:24:40;;;;;;;;;;;;;;;23.96;43.68;100746.58;1433066;91;20304;-82
2022/08/11 08:27:11;;;;;;;;;;;;;;;23.94;42.70;100754.08;1431762;90;20307;-82
2022/08/11 08:32:22;;;;;;;;;;;;;;;24.13;42.60;100748.94;1417221;91;20327;-82
2022/08/11 08:34:50;;;;;;;;;;;;;;;24.08;42.22;100743.39;1415790;91;20308;-82
2022/08/11 08:37:20;;;;;;;;;;;;;;;24.12;42.03;100743.25;1427543;91;20312;-82
2022/08/11 08:39:47;;;;;;;;;;;;;;;24.27;42.43;100739.59;1407094;91;21601;-82
2022/08/11 08:42:28;;;;;;;;;;;;;;;24.23;41.48;100741.12;1427533;91;20262;-82
2022/08/11 08:45:15;;;;;;;;;;;;;;;24.47;42.43;100741.20;1432296;91;20350;-82
2022/08/11 08:47:42;;;;;;;;;;;;;;;24.72;42.49;100743.20;1431108;91;20335;-82
2022/08/11 08:50:18;;;;;;;;;;;;;;;24.71;40.61;100735.30;1434487;91;20892;-82
2022/08/11 08:52:46;;;;;;;;;;;;;;;24.43;40.13;100731.92;1421632;91;20239;-82
2022/08/11 08:55:15;;;;;;;;;;;;;;;24.61;41.41;100726.41;1406662;91;20402;-82
2022/08/11 08:57:42;;;;;;;;;;;;;;;24.66;40.62;100718.42;1403067;91;20439;-82
2022/08/11 09:00:09;;;;;;;;;;;;;;;24.88;41.05;100720.55;1422837;91;20417;-82
2022/08/11 09:02:35;;;;;;;;;;;;;;;24.88;40.03;100719.19;1417403;91;20359;-82
2022/08/11 09:05:03;;;;;;;;;;;;;;;25.08;40.29;100721.01;1404584;91;20447;-81
2022/08/11 09:07:30;;;;;;;;;;;;;;;25.30;39.96;100715.03;1437442;90;20811;-82
2022/08/11 09:09:57;;;;;;;;;;;;;;;25.38;39.13;100716.02;1412177;91;20224;-82
2022/08/11 09:12:28;;;;;;;;;;;;;;;25.56;39.11;100709.07;1403956;93;20389;-82
2022/08/11 09:15:06;;;;;;;;;;;;;;;25.55;38.00;100707.94;1431443;91;20372;-82
2022/08/11 09:17:41;;;;;;;;;;;;;;;25.39;39.11;100708.17;1418155;91;20334;-82
2022/08/11 09:20:25;;;;;;;;;;;;;;;25.39;37.48;100705.46;1428552;91;20335;-82
2022/08/11 09:28:23;;;;;;;;;;;;;;;25.85;37.32;100707.77;1430095;90;20930;-82
2022/08/11 09:30:55;;;;;;;;;;;;;;;26.03;36.75;100710.27;1441924;90;20415;-82
2022/08/11 09:33:23;;;;;;;;;;;;;;;26.08;37.42;100701.42;1425900;90;20294;-82
2022/08/11 09:35:50;;;;;;;;;;;;;;;26.07;37.03;100699.78;1451332;90;20444;-82
2022/08/11 09:41:04;;;;;;;;;;;;;;;26.40;37.87;100706.31;1448102;90;20872;-81
2022/08/11 09:46:16;;;;;;;;;;;;;;;26.25;35.55;100704.98;1436412;90;20816;-81
2022/08/11 09:48:44;;;;;;;;;;;;;;;26.47;35.83;100686.60;1434669;90;20333;-80
2022/08/11 09:51:12;;;;;;;;;;;;;;;26.79;36.08;100688.24;1453821;90;20336;-81
2022/08/11 09:53:41;;;;;;;;;;;;;;;27.05;34.59;100687.25;1427052;90;20286;-81
2022/08/11 09:58:58;;;;;;;;;;;;;;;27.58;33.94;100677.61;1459960;90;20341;-81
2022/08/11 10:01:27;;;;;;;;;;;;;;;27.74;33.71;100676.72;1444437;90;20995;-81
2022/08/11 10:03:59;;;;;;;;;;;;;;;27.83;34.04;100672.48;1430395;91;20317;-81
2022/08/11 10:09:15;;;;;;;;;;;;;;;27.55;33.02;100675.41;1452093;90;20326;-81
2022/08/11 10:11:41;;;;;;;;;;;;;;;27.29;33.40;100679.17;1451315;90;20364;-81
2022/08/11 10:16:39;;;;;;;;;;;;;;;26.52;34.42;100671.25;1422691;90;20861;-80
2022/08/11 10:19:05;;;;;;;;;;;;;;;26.21;34.80;100667.72;1447751;90;20918;-81
2022/08/11 10:21:37;;;;;;;;;;;;;;;26.30;36.05;100668.45;1428453;89;20292;-81
2022/08/11 10:26:57;;;;;;;;;;;;;;;25.84;35.58;100654.09;1449657;90;20853;-81
2022/08/11 10:35:01;;;;;;;;;;;;;;;25.80;34.97;100646.64;1400018;92;20359;-81
2022/08/11 10:37:33;;;;;;;;;;;;;;;25.94;35.73;100658.86;1416054;92;20322;-80
2022/08/11 10:39:55;;;;;;;;;;;;;;;25.74;35.30;100643.02;1415215;92;20344;-80
2022/08/11 10:47:38;;;;;;;;;;;;;;;25.53;35.33;100639.64;1412203;91;20768;-80
2022/08/11 10:58:49;;;;;;;;;;;;;;;26.77;34.68;100635.53;1432975;91;20302;-81
2022/08/11 11:01:21;;;;;;;;;;;;;;;26.83;33.35;100631.00;1443060;91;20409;-81
2022/08/11 11:03:51;;;;;;;;;;;;;;;27.25;32.86;100618.78;1436351;91;20421;-81
2022/08/11 11:06:30;;;;;;;;;;;;;;;27.81;33.72;100617.52;1434435;91;20332;-81
2022/08/11 11:09:06;;;;;;;;;;;;;;;28.07;31.20;100613.67;1435962;91;20350;-81
2022/08/11 11:19:41;;;;;;;;;;;;;;;27.76;31.42;100614.72;1411989;92;20523;-81
2022/08/11 11:25:06;;;;;;;;;;;;;;;27.17;32.18;100611.92;1425129;90;21555;-81
2022/08/11 11:27:41;;;;;;;;;;;;;;;27.43;31.47;100599.45;1437654;91;21005;-81
2022/08/11 11:30:09;;;;;;;;;;;;;;;27.79;31.89;100596.56;1442487;90;20254;-81
2022/08/11 11:32:47;;;;;;;;;;;;;;;28.31;32.43;100597.28;1453244;90;20307;-81
2022/08/11 11:35:20;;;;;;;;;;;;;;;28.70;29.61;100583.93;1458568;90;20283;-81
2022/08/11 11:37:50;;;;;;;;;;;;;;;28.75;29.56;100592.95;1456867;90;20334;-81
2022/08/11 11:40:22;;;;;;;;;;;;;;;28.23;29.62;100592.31;1454110;90;20416;-81
2022/08/11 11:42:50;;;;;;;;;;;;;;;28.27;30.24;100589.34;1458554;90;20283;-81
2022/08/11 11:45:18;;;;;;;;;;;;;;;28.43;30.31;100590.86;1452135;90;20869;-81
2022/08/11 11:47:44;;;;;;;;;;;;;;;28.73;29.96;100588.30;1453483;90;20320;-81
2022/08/11 11:50:11;;;;;;;;;;;;;;;28.70;30.31;100585.29;1453258;90;20349;-81
2022/08/11 11:52:39;;;;;;;;;;;;;;;28.16;29.76;100584.91;1456797;90;21021;-81
2022/08/11 11:55:06;;;;;;;;;;;;;;;28.33;31.54;100579.31;1458744;90;20364;-81
2022/08/11 12:03:04;;;;;;;;;;;;;;;29.06;29.62;100574.57;1456434;90;21562;-82
2022/08/11 12:05:32;;;;;;;;;;;;;;;29.22;28.55;100573.00;1446255;90;20454;-81
2022/08/11 12:08:14;;;;;;;;;;;;;;;29.41;29.28;100573.88;1454824;90;20463;-81
2022/08/11 12:10:39;;;;;;;;;;;;;;;29.75;29.50;100573.39;1453837;90;20275;-82
2022/08/11 12:15:51;;;;;;;;;;;;;;;29.88;28.79;100572.86;1444115;90;20411;-81
2022/08/11 12:18:17;;;;;;;;;;;;;;;29.80;28.61;100564.66;1453379;90;20946;-81
2022/08/11 12:20:44;;;;;;;;;;;;;;;29.80;28.87;100559.76;1447176;90;20297;-81
2022/08/11 12:28:44;;;;;;;;;;;;;;;29.86;28.48;100563.57;1453738;90;20319;-82
2022/08/11 12:31:10;;;;;;;;;;;;;;;29.62;27.26;100560.56;1450203;90;20312;-82
2022/08/11 12:33:37;;;;;;;;;;;;;;;29.55;28.82;100551.81;1445704;90;20445;-81
2022/08/11 12:36:04;;;;;;;;;;;;;;;29.30;28.40;100553.13;1444856;90;20973;-81
2022/08/11 12:38:31;;;;;;;;;;;;;;;28.98;28.99;100554.09;1447816;90;20448;-81
2022/08/11 12:46:36;;;;;;;;;;;;;;;28.40;29.05;100550.50;1447322;90;20408;-81
2022/08/11 12:51:57;;;;;;;;;;;;;;;27.99;30.42;100547.50;1429941;90;20971;-81
2022/08/11 12:54:36;;;;;;;;;;;;;;;27.44;29.99;100548.08;1445326;90;20527;-82
2022/08/11 13:05:25;;;;;;;;;;;;;;;29.64;28.93;100542.59;1433221;90;20451;-91
2022/08/11 13:07:51;;;;;;;;;;;;;;;30.33;27.31;100538.47;1439209;90;20852;-82
2022/08/11 13:12:47;;;;;;;;;;;;;;;31.29;26.42;100532.33;1413671;90;21188;-82
2022/08/11 13:15:19;;;;;;;;;;;;;;;31.59;26.60;100532.71;1448992;90;20316;-83
2022/08/11 13:17:47;;;;;;;;;;;;;;;31.62;25.97;100523.09;1446288;90;20300;-83
2022/08/11 13:20:23;;;;;;;;;;;;;;;31.45;25.80;100526.25;1438705;90;20370;-81
2022/08/11 13:22:49;;;;;;;;;;;;;;;31.82;26.59;100518.84;1404001;92;20333;-81
2022/08/11 13:25:17;;;;;;;;;;;;;;;32.10;25.30;100520.51;1423396;90;21652;-81
2022/08/11 13:27:46;;;;;;;;;;;;;;;32.19;24.43;100521.50;1426577;90;20340;-81
2022/08/11 13:33:00;;;;;;;;;;;;;;;32.50;24.18;100511.62;1437906;90;20401;-81
2022/08/11 13:35:27;;;;;;;;;;;;;;;32.50;24.41;100510.25;1419160;90;20898;-78
2022/08/11 13:37:55;;;;;;;;;;;;;;;32.67;24.77;100511.95;1423537;90;21654;-79
2022/08/11 13:40:22;;;;;;;;;;;;;;;33.44;24.07;100515.02;1415084;90;20326;-79
2022/08/11 13:42:49;;;;;;;;;;;;;;;33.43;23.81;100506.52;1442990;90;20575;-79
2022/08/11 13:45:21;;;;;;;;;;;;;;;33.00;23.49;100497.01;1439143;90;20942;-79
2022/08/11 13:47:48;;;;;;;;;;;;;;;32.92;24.39;100497.66;1433255;90;20412;-79
2022/08/11 13:50:15;;;;;;;;;;;;;;;33.32;24.02;100488.05;1444690;90;21194;-78
2022/08/11 13:52:41;;;;;;;;;;;;;;;33.22;23.29;100486.27;1438543;90;20341;-78
2022/08/11 13:55:20;;;;;;;;;;;;;;;32.92;24.08;100486.14;1435470;89;20764;-78
2022/08/11 13:57:41;;;;;;;;;;;;;;;32.58;24.68;100487.69;1432975;89;20389;-81
2022/08/11 14:00:08;;;;;;;;;;;;;;;32.54;23.62;100486.62;1447342;90;20906;-81
2022/08/11 14:02:37;;;;;;;;;;;;;;;32.95;23.99;100477.89;1439707;90;20763;-81
2022/08/11 14:05:06;;;;;;;;;;;;;;;32.71;22.88;100473.25;1426847;90;20453;-81
2022/08/11 14:07:38;;;;;;;;;;;;;;;32.88;22.70;100469.20;1439199;89;20352;-82
2022/08/11 14:10:06;;;;;;;;;;;;;;;33.01;22.96;100474.80;1438461;90;20325;-81
2022/08/11 14:15:28;;;;;;;;;;;;;;;33.56;22.56;100471.50;1437825;89;20402;-79
2022/08/11 14:18:00;;;;;;;;;;;;;;;33.47;23.03;100477.39;1446888;90;20319;-79
2022/08/11 14:22:05;;;;;;;;;;;;;;;33.44;23.15;100468.39;1433321;90;20460;-79
2022/08/11 14:22:55;;;;;;;;;;;;;;;33.19;22.44;100462.74;1445374;90;20402;-79
2022/08/11 14:25:21;;;;;;;;;;;;;;;33.55;21.85;100465.77;1437677;90;20342;-78
2022/08/11 14:27:48;;;;;;;;;;;;;;;33.83;22.08;100465.81;1441834;90;21705;-79
2022/08/11 14:30:54;;;;;;;;;;;;;;;34.23;21.78;100465.61;1447414;90;20959;-79
2022/08/11 14:32:42;;;;;;;;;;;;;;;34.52;21.32;100465.85;1442657;89;21304;-79
2022/08/11 14:35:10;;;;;;;;;;;;;;;34.85;20.80;100462.42;1438293;88;20397;-78
2022/08/11 14:37:36;;;;;;;;;;;;;;;34.66;21.49;100468.62;1420288;92;20630;-78
2022/08/11 14:47:03;;;;;;;;;;;;;;;34.20;22.00;100466.80;1419884;92;20372;-78
2022/08/11 14:48:05;;;;;;;;;;;;;;;33.95;22.12;100477.10;1435642;89;20326;-78
2022/08/11 14:50:32;;;;;;;;;;;;;;;34.01;21.67;100471.80;1421124;90;20311;-78
2022/08/11 14:53:00;;;;;;;;;;;;;;;33.10;22.25;100466.72;1425615;90;20341;-78
2022/08/11 14:58:18;;;;;;;;;;;;;;;33.62;22.42;100460.69;1434320;89;20379;-78
2022/08/11 15:00:45;;;;;;;;;;;;;;;33.52;23.11;100463.63;1428686;90;20309;-78
2022/08/11 15:03:15;;;;;;;;;;;;;;;32.97;22.90;100459.20;1431009;88;20489;-80
2022/08/11 15:05:50;;;;;;;;;;;;;;;32.21;23.46;100459.06;1436835;88;20364;-80
2022/08/11 15:08:15;;;;;;;;;;;;;;;31.68;24.43;100458.50;1422268;90;20327;-78
2022/08/11 15:10:41;;;;;;;;;;;;;;;30.88;25.42;100447.05;1437612;90;20402;-80
2022/08/11 15:13:09;;;;;;;;;;;;;;;30.66;26.07;100453.67;1438681;89;20936;-80
2022/08/11 15:18:23;;;;;;;;;;;;;;;30.14;26.51;100453.58;1431368;90;20519;-79
2022/08/11 15:37:36;;;;;;;;;;;;;;;27.58;29.96;100451.45;1436787;90;20312;-80
2022/08/11 15:45:53;;;;;;;;;;;;;;;27.11;32.43;100452.09;1450842;89;20365;-81
2022/08/11 15:48:35;;;;;;;;;;;;;;;26.71;32.89;100457.37;1433438;88;20350;-82
2022/08/11 15:51:13;;;;;;;;;;;;;;;26.63;33.12;100451.02;1433987;89;20432;-82
2022/08/11 15:53:55;;;;;;;;;;;;;;;26.49;33.60;100454.63;1451120;89;20292;-82
2022/08/11 15:56:24;;;;;;;;;;;;;;;26.14;34.24;100460.41;1426485;90;20318;-81
2022/08/11 16:04:26;;;;;;;;;;;;;;;25.65;35.51;100461.00;1418631;90;20357;-82
2022/08/11 16:06:56;;;;;;;;;;;;;;;25.58;35.74;100463.06;1416423;90;20448;-86
2022/08/11 16:09:25;;;;;;;;;;;;;;;25.57;36.13;100458.69;1420447;90;20371;-82
2022/08/11 16:11:57;;;;;;;;;;;;;;;25.49;36.16;100459.12;1410006;92;20846;-82
2022/08/11 16:17:10;;;;;;;;;;;;;;;25.03;37.05;100459.64;1426726;90;20869;-83
2022/08/11 16:19:38;;;;;;;;;;;;;;;24.84;37.41;100462.23;1434848;90;21162;-82
2022/08/11 16:22:06;;;;;;;;;;;;;;;24.90;37.43;100466.15;1442773;89;21614;-83
2022/08/11 16:24:35;;;;;;;;;;;;;;;24.85;37.46;100466.58;1438486;90;20454;-82
2022/08/11 16:27:02;;;;;;;;;;;;;;;24.68;37.74;100465.97;1514866;90;20261;-82
2022/08/11 16:29:30;;;;;;;;;;;;;;;24.71;37.82;100472.26;1432594;89;21569;-81
2022/08/11 16:32:15;;;;;;;;;;;;;;;24.55;37.87;100474.37;1445568;90;20356;-81
2022/08/11 16:40:18;;;;;;;;;;;;;;;24.42;38.51;100476.77;1434367;89;20486;-82
2022/08/11 16:48:14;;;;;;;;;;;;;;;24.16;37.91;100474.03;1431568;90;20385;-82
2022/08/11 16:50:41;;;;;;;;;;;;;;;24.06;37.62;100473.83;1447684;90;20349;-82
2022/08/11 16:53:06;;;;;;;;;;;;;;;23.95;37.75;100480.87;1437846;90;20377;-82
2022/08/11 16:55:34;;;;;;;;;;;;;;;23.93;38.13;100476.75;1437064;90;20348;-82
2022/08/11 17:00:45;;;;;;;;;;;;;;;23.79;38.66;100481.02;1426191;90;20334;-82
2022/08/11 17:14:26;;;;;;;;;;;;;;;23.33;40.40;100481.22;1430818;90;20287;-81
2022/08/11 17:16:52;;;;;;;;;;;;;;;23.27;40.57;100487.51;1442292;90;20333;-82
2022/08/11 17:19:27;;;;;;;;;;;;;;;23.11;40.42;100478.20;1419353;91;20318;-81
2022/08/11 17:24:46;;;;;;;;;;;;;;;22.97;40.85;100488.34;1447539;90;20650;-81
2022/08/11 17:27:17;;;;;;;;;;;;;;;22.87;41.10;100486.70;1441767;90;20438;-81
2022/08/11 17:29:46;;;;;;;;;;;;;;;22.74;41.59;100486.85;1445081;90;20342;-81
2022/08/11 17:37:49;;;;;;;;;;;;;;;22.53;42.40;100490.84;1442481;89;20328;-82
2022/08/11 17:40:20;;;;;;;;;;;;;;;22.41;43.02;100498.00;1382390;89;20359;-81
2022/08/11 17:48:25;;;;;;;;;;;;;;;22.18;44.06;100496.80;1433096;90;20785;-81
2022/08/11 17:50:58;;;;;;;;;;;;;;;22.06;44.46;100495.30;1432535;89;20355;-81
2022/08/11 18:01:37;;;;;;;;;;;;;;;21.66;46.20;100512.32;1423342;89;20389;-81
2022/08/11 18:04:06;;;;;;;;;;;;;;;21.56;46.30;100506.61;1414973;90;21063;-81
2022/08/11 18:06:33;;;;;;;;;;;;;;;21.50;46.61;100508.30;1436363;89;20305;-81
